X  CloseMetar Aviation Weather Data     ENZV Stavanger , Sola

Temperature

15°C Temperature

13°C Dewpoint

88% Humidity



Wind

34 KM/H

21 MPH

 9 M/S

18 KTS



170°
Due South
Current Conditions

Light Rain Light Rain
Pressure 1014.92 (hPa) - 29.97 (in)
Visibility 5 (mi) - 8 (km)
Airport
Airport-code ENZV

Location Stavanger , Sola 100 (km)

Metar:
ENZV 220720Z 17018KT 8000 -RA FEW007 SCT017 BKN023 15/13 Q1015 TEMPO 4000 SHRA BR BKN007 SCT015CB

Time: 22-08-2019 09:20